Terminal Aerodrome Forecast
Issued by NWS

Home | Current Version | Previous Version | Text Only | Print | Product List | Glossary On
Versions: 1 2 3 4 5 6 7 8 9 10 11 12 13 14 15 16 17 18 19 20 21 22 23 24 25 26
000
FTUS43 KIND 212300
TAFLAF
TAF
KLAF 212320Z 2200/2224 03004KT P6SM BKN040
     FM220400 VRB03KT P6SM SKC
     FM221600 05005KT P6SM SKC
     FM222300 VRB03KT P6SM SKC
      AMD LTD TO CLD VIS AND WIND 2201/2213=

USA.gov is the U.S. government's official web portal to all federal, state and local government web resources and services.